createdAt,value
2023-01-10T00:00:17.714Z,5.59
2023-01-10T00:02:44.066Z,5.55
2023-01-10T00:05:11.902Z,5.51
2023-01-10T00:07:38.240Z,5.50
2023-01-10T00:10:04.988Z,5.48
2023-01-10T00:12:31.325Z,5.42
2023-01-10T00:14:57.597Z,5.44
2023-01-10T00:17:23.925Z,5.37
2023-01-10T00:19:50.269Z,5.42
2023-01-10T00:22:17.915Z,5.32
2023-01-10T00:24:44.268Z,5.38
2023-01-10T00:27:10.605Z,5.31
2023-01-10T00:29:36.915Z,5.28
2023-01-10T00:32:03.220Z,5.31
2023-01-10T00:34:29.696Z,5.25
2023-01-10T00:36:55.967Z,5.21
2023-01-10T00:39:23.589Z,5.27
2023-01-10T00:41:49.893Z,5.21
2023-01-10T00:44:16.234Z,5.12
2023-01-10T00:46:42.527Z,5.10
2023-01-10T00:49:08.856Z,5.14
2023-01-10T00:51:35.183Z,5.18
2023-01-10T00:54:01.574Z,5.24
2023-01-10T00:56:29.216Z,5.25
2023-01-10T00:58:55.574Z,5.11
2023-01-10T01:01:21.958Z,5.05
2023-01-10T01:03:48.334Z,4.98
2023-01-10T01:06:14.637Z,4.99
2023-01-10T01:08:40.949Z,4.98
2023-01-10T01:11:07.294Z,4.94
2023-01-10T01:13:34.955Z,4.98
2023-01-10T01:16:01.265Z,4.96
2023-01-10T01:18:27.948Z,4.97
2023-01-10T01:20:55.428Z,4.91
2023-01-10T01:23:22.347Z,4.81
2023-01-10T01:25:49.940Z,4.79
2023-01-10T01:28:16.279Z,4.87
2023-01-10T01:30:44.006Z,4.86
2023-01-10T01:33:10.302Z,4.80
2023-01-10T01:35:36.593Z,4.80
2023-01-10T01:38:03.064Z,4.79
2023-01-10T01:40:29.580Z,4.77
2023-01-10T01:42:55.959Z,4.71
2023-01-10T01:45:36.419Z,4.78
2023-01-10T01:48:17.631Z,4.73
2023-01-10T01:50:48.016Z,4.63
2023-01-10T01:53:16.852Z,4.61
2023-01-10T01:55:45.554Z,4.69
2023-01-10T01:58:13.998Z,4.61
2023-01-10T02:00:40.324Z,4.65
2023-01-10T02:03:06.715Z,4.70
2023-01-10T02:05:34.063Z,4.69
2023-01-10T02:08:02.146Z,4.72
2023-01-10T02:10:32.899Z,4.79
2023-01-10T02:13:01.673Z,4.84
2023-01-10T02:15:28.181Z,4.85
2023-01-10T02:17:54.624Z,4.90
2023-01-10T02:20:22.474Z,4.95
2023-01-10T02:23:06.384Z,4.98
2023-01-10T02:25:50.452Z,5.00
2023-01-10T02:28:29.107Z,4.97
2023-01-10T02:31:04.359Z,4.96
2023-01-10T02:33:35.868Z,5.06
2023-01-10T02:36:08.049Z,5.02
2023-01-10T02:38:43.685Z,5.07
2023-01-10T02:41:19.720Z,5.07
2023-01-10T02:43:47.818Z,5.06
2023-01-10T02:46:16.846Z,5.06
2023-01-10T02:48:44.547Z,5.09
2023-01-10T02:51:17.030Z,5.10
2023-01-10T02:53:45.151Z,5.10
2023-01-10T02:56:29.881Z,5.08
2023-01-10T02:59:23.588Z,5.06
2023-01-10T03:01:53.594Z,5.02
2023-01-10T03:04:24.887Z,4.99
2023-01-10T03:06:54.601Z,4.94
2023-01-10T03:09:23.891Z,4.85
2023-01-10T03:11:53.504Z,4.84
2023-01-10T03:14:22.370Z,4.79
2023-01-10T03:16:52.318Z,4.81
2023-01-10T03:19:20.607Z,4.79
2023-01-10T03:21:51.102Z,4.74
2023-01-10T03:24:18.801Z,4.70
2023-01-10T03:26:47.894Z,4.66
2023-01-10T03:29:18.773Z,4.60
2023-01-10T03:31:47.993Z,4.62
2023-01-10T03:34:14.451Z,4.58
2023-01-10T03:36:43.545Z,4.57
2023-01-10T03:39:18.142Z,4.50
2023-01-10T03:41:48.775Z,4.51
2023-01-10T03:44:17.804Z,4.48
2023-01-10T03:46:46.833Z,4.52
2023-01-10T03:49:14.844Z,4.49
2023-01-10T03:51:42.026Z,4.51
2023-01-10T03:54:08.343Z,4.50
2023-01-10T03:56:45.041Z,4.49
2023-01-10T03:59:11.583Z,4.58
2023-01-10T04:01:38.116Z,4.56
2023-01-10T04:04:04.765Z,4.59
2023-01-10T04:06:31.105Z,4.68
2023-01-10T04:08:57.434Z,4.70
2023-01-10T04:11:23.788Z,4.73
2023-01-10T04:13:51.485Z,4.70
2023-01-10T04:16:17.838Z,4.76
2023-01-10T04:18:44.134Z,4.75
2023-01-10T04:21:10.462Z,4.76
2023-01-10T04:23:36.798Z,4.78
2023-01-10T04:26:03.115Z,4.81
2023-01-10T04:28:29.446Z,4.78
2023-01-10T04:30:57.111Z,4.81
2023-01-10T04:33:23.463Z,4.82
2023-01-10T04:35:50.285Z,4.80
2023-01-10T04:38:16.672Z,4.80
2023-01-10T04:40:42.994Z,4.80
2023-01-10T04:43:09.507Z,4.90
2023-01-10T04:45:36.032Z,4.86
2023-01-10T04:48:03.934Z,4.86
2023-01-10T04:50:30.245Z,4.84
2023-01-10T04:52:56.611Z,4.87
2023-01-10T04:55:22.916Z,4.84
2023-01-10T04:57:49.233Z,4.83
2023-01-10T05:00:15.998Z,4.86
2023-01-10T05:02:42.461Z,4.86
2023-01-10T05:05:10.739Z,4.85
2023-01-10T05:07:37.234Z,4.88
2023-01-10T05:10:04.016Z,4.88
2023-01-10T05:12:30.344Z,4.94
2023-01-10T05:14:56.660Z,4.89
2023-01-10T05:17:22.968Z,4.88
2023-01-10T05:19:49.298Z,4.87
2023-01-10T05:22:16.972Z,4.90
2023-01-10T05:24:43.346Z,4.90
2023-01-10T05:27:09.689Z,4.93
2023-01-10T05:29:36.013Z,4.93
2023-01-10T05:32:02.381Z,4.96
2023-01-10T05:34:28.798Z,4.97
2023-01-10T05:36:55.160Z,4.98
2023-01-10T05:39:22.799Z,5.04
2023-01-10T05:41:49.129Z,5.04
2023-01-10T05:44:15.495Z,5.12
2023-01-10T05:46:41.869Z,5.15
2023-01-10T05:49:08.261Z,5.22
2023-01-10T05:51:34.561Z,5.15
2023-01-10T05:54:01.053Z,5.21
2023-01-10T05:56:28.726Z,5.19
2023-01-10T05:59:05.333Z,5.16
2023-01-10T06:01:34.291Z,5.20
2023-01-10T06:04:00.640Z,5.19
2023-01-10T06:06:26.926Z,5.27
2023-01-10T06:08:53.238Z,5.19
2023-01-10T06:11:19.553Z,5.34
2023-01-10T06:13:47.185Z,5.34
2023-01-10T06:16:13.557Z,5.27
2023-01-10T06:18:39.920Z,5.24
2023-01-10T06:21:06.209Z,5.12
2023-01-10T06:23:32.513Z,5.06
2023-01-10T06:25:58.827Z,4.99
2023-01-10T06:28:25.145Z,4.97
2023-01-10T06:30:52.821Z,4.89
2023-01-10T06:33:19.172Z,4.79
2023-01-10T06:35:45.503Z,4.79
2023-01-10T06:38:11.790Z,4.76
2023-01-10T06:40:38.130Z,4.78
2023-01-10T06:43:04.442Z,4.73
2023-01-10T06:45:30.808Z,4.72
2023-01-10T06:47:58.477Z,4.75
2023-01-10T06:50:24.814Z,4.74
2023-01-10T06:52:57.036Z,4.73
2023-01-10T06:55:23.340Z,4.72
2023-01-10T06:57:54.289Z,4.67
2023-01-10T07:00:21.227Z,4.64
2023-01-10T07:02:47.526Z,4.60
2023-01-10T07:05:15.269Z,4.56
2023-01-10T07:07:41.600Z,4.53
2023-01-10T07:10:08.797Z,4.48
2023-01-10T07:12:35.129Z,4.43
2023-01-10T07:15:01.446Z,4.44
2023-01-10T07:17:27.753Z,4.41
2023-01-10T07:19:54.029Z,4.46
2023-01-10T07:22:21.694Z,4.44
2023-01-10T07:24:47.979Z,4.42
2023-01-10T07:27:14.436Z,4.43
2023-01-10T07:29:40.763Z,4.35
2023-01-10T07:32:07.090Z,4.37
2023-01-10T07:34:33.402Z,4.38
2023-01-10T07:37:00.996Z,4.36
2023-01-10T07:39:28.679Z,4.38
2023-01-10T07:41:54.972Z,4.43
2023-01-10T07:44:21.285Z,4.42
2023-01-10T07:46:47.644Z,4.43
2023-01-10T07:49:14.030Z,4.47
2023-01-10T07:51:40.396Z,4.42
2023-01-10T07:54:06.692Z,4.35
2023-01-10T07:56:34.353Z,4.41
2023-01-10T07:59:00.641Z,4.41
2023-01-10T08:01:27.030Z,4.36
2023-01-10T08:03:53.398Z,4.41
2023-01-10T08:06:19.772Z,4.38
2023-01-10T08:08:46.119Z,4.35
2023-01-10T08:11:12.456Z,4.36
2023-01-10T08:13:40.344Z,4.39
2023-01-10T08:16:07.358Z,4.43
2023-01-10T08:18:33.970Z,4.53
2023-01-10T08:21:00.353Z,4.47
2023-01-10T08:23:26.931Z,4.46
2023-01-10T08:25:53.475Z,4.50
2023-01-10T08:28:19.834Z,4.57
2023-01-10T08:30:49.635Z,4.57
2023-01-10T08:33:16.769Z,4.58
2023-01-10T08:35:43.388Z,4.61
2023-01-10T08:38:09.989Z,4.62
2023-01-10T08:40:36.521Z,4.69
2023-01-10T08:43:04.379Z,4.73
2023-01-10T08:45:30.740Z,4.74
2023-01-10T08:47:58.478Z,4.81
2023-01-10T08:50:25.235Z,4.84
2023-01-10T08:52:51.634Z,4.90
2023-01-10T08:55:18.030Z,4.98
2023-01-10T08:57:44.360Z,5.00
2023-01-10T09:00:11.177Z,4.99
2023-01-10T09:02:37.627Z,5.04
2023-01-10T09:05:07.839Z,5.04
2023-01-10T09:07:36.206Z,5.07
2023-01-10T09:10:02.710Z,5.10
2023-01-10T09:12:29.133Z,5.20
2023-01-10T09:14:55.460Z,5.22
2023-01-10T09:17:21.826Z,5.25
2023-01-10T09:19:48.140Z,5.31
2023-01-10T09:22:15.851Z,5.30
2023-01-10T09:24:42.133Z,5.34
2023-01-10T09:27:08.447Z,5.37
2023-01-10T09:29:34.769Z,5.41
2023-01-10T09:32:01.082Z,5.45
2023-01-10T09:34:27.546Z,5.49
2023-01-10T09:36:53.938Z,5.51
2023-01-10T09:39:21.681Z,5.52
2023-01-10T09:41:55.111Z,5.53
2023-01-10T09:44:26.989Z,5.48
2023-01-10T09:47:02.066Z,5.52
2023-01-10T09:49:38.390Z,5.55
2023-01-10T09:52:08.761Z,5.59
2023-01-10T09:54:39.678Z,5.59
2023-01-10T09:57:06.286Z,5.59
2023-01-10T09:59:36.231Z,5.61
2023-01-10T10:02:07.053Z,5.62
2023-01-10T10:04:34.867Z,5.68
2023-01-10T10:07:02.111Z,5.70
2023-01-10T10:09:29.851Z,5.74
2023-01-10T10:12:01.929Z,5.77
2023-01-10T10:14:39.183Z,5.79
2023-01-10T10:17:22.525Z,5.83
2023-01-10T10:19:55.624Z,5.86
2023-01-10T10:22:28.186Z,5.91
2023-01-10T10:25:01.452Z,5.92
2023-01-10T10:27:34.941Z,5.96
2023-01-10T10:30:10.606Z,6.02
2023-01-10T10:32:50.438Z,6.04
2023-01-10T10:35:19.022Z,6.06
2023-01-10T10:37:48.267Z,6.09
2023-01-10T10:40:17.533Z,6.10
2023-01-10T10:42:46.813Z,6.14
2023-01-10T10:45:17.160Z,6.13
2023-01-10T10:47:46.183Z,6.18
2023-01-10T10:50:18.229Z,6.19
2023-01-10T10:52:45.292Z,6.23
2023-01-10T10:55:13.931Z,6.22
2023-01-10T10:57:51.571Z,6.30
2023-01-10T11:00:24.087Z,6.32
2023-01-10T11:02:53.312Z,6.32
2023-01-10T11:05:21.916Z,6.34
2023-01-10T11:07:49.092Z,6.39
2023-01-10T11:10:16.483Z,6.39
2023-01-10T11:12:46.059Z,6.44
2023-01-10T11:15:12.423Z,6.46
2023-01-10T11:17:40.088Z,6.51
2023-01-10T11:20:13.625Z,6.55
2023-01-10T11:22:44.153Z,6.57
2023-01-10T11:25:13.910Z,6.57
2023-01-10T11:27:44.146Z,6.61
2023-01-10T11:30:18.158Z,6.66
2023-01-10T11:32:51.721Z,6.64
2023-01-10T11:35:20.903Z,6.64
2023-01-10T11:37:58.602Z,6.67
2023-01-10T11:40:26.508Z,6.67
2023-01-10T11:42:53.529Z,6.71
2023-01-10T11:45:40.764Z,6.70
2023-01-10T11:48:10.152Z,6.71
2023-01-10T11:50:37.624Z,6.71
2023-01-10T11:53:04.936Z,6.75
2023-01-10T11:55:33.635Z,6.73
2023-01-10T11:58:02.601Z,6.74
2023-01-10T12:00:34.976Z,6.76
2023-01-10T12:03:01.481Z,6.78
2023-01-10T12:05:29.350Z,6.80
2023-01-10T12:07:56.687Z,6.82
2023-01-10T12:10:24.651Z,6.82
2023-01-10T12:12:54.488Z,6.90
2023-01-10T12:15:23.060Z,6.87
2023-01-10T12:17:49.956Z,6.93
2023-01-10T12:20:16.284Z,6.93
2023-01-10T12:22:45.421Z,6.92
2023-01-10T12:25:17.475Z,6.92
2023-01-10T12:27:44.044Z,6.93
2023-01-10T12:30:12.947Z,7.00
2023-01-10T12:32:42.679Z,6.99
2023-01-10T12:35:13.962Z,7.02
2023-01-10T12:37:42.332Z,7.02
2023-01-10T12:40:14.412Z,7.06
2023-01-10T12:42:45.804Z,7.10
2023-01-10T12:45:13.979Z,7.07
2023-01-10T12:47:45.075Z,7.09
2023-01-10T12:50:13.848Z,7.08
2023-01-10T12:52:42.834Z,7.15
2023-01-10T12:55:13.825Z,7.08
2023-01-10T12:57:42.070Z,7.12
2023-01-10T13:00:15.778Z,7.12
2023-01-10T13:02:43.663Z,7.18
2023-01-10T13:05:15.041Z,7.15
2023-01-10T13:07:41.851Z,7.21
2023-01-10T13:10:14.113Z,7.24
2023-01-10T13:12:44.295Z,7.21
2023-01-10T13:15:15.449Z,7.20
2023-01-10T13:17:44.901Z,7.20
2023-01-10T13:20:27.467Z,7.24
2023-01-10T13:22:55.226Z,7.22
2023-01-10T13:25:23.354Z,7.24
2023-01-10T13:27:55.528Z,7.14
2023-01-10T13:30:26.184Z,7.19
2023-01-10T13:32:56.130Z,7.20
2023-01-10T13:35:22.473Z,7.16
2023-01-10T13:37:52.204Z,7.16
2023-01-10T13:40:21.301Z,7.20
2023-01-10T13:43:07.640Z,7.22
2023-01-10T13:45:35.314Z,7.22
2023-01-10T13:48:02.897Z,7.31
2023-01-10T13:50:48.397Z,7.28
2023-01-10T13:53:33.498Z,7.28
2023-01-10T13:55:59.777Z,7.30
2023-01-10T13:58:42.476Z,7.35
2023-01-10T14:01:22.501Z,7.32
2023-01-10T14:03:51.130Z,7.38
2023-01-10T14:06:37.899Z,7.45
2023-01-10T14:09:06.349Z,7.40
2023-01-10T14:11:45.967Z,7.40
2023-01-10T14:14:20.383Z,7.44
2023-01-10T14:16:49.095Z,7.38
2023-01-10T14:19:22.859Z,7.34
2023-01-10T14:21:52.282Z,7.38
2023-01-10T14:24:23.245Z,7.30
2023-01-10T14:26:49.766Z,7.23
2023-01-10T14:29:17.330Z,7.16
2023-01-10T14:31:45.022Z,7.17
2023-01-10T14:34:16.614Z,7.13
2023-01-10T14:36:48.817Z,7.08
2023-01-10T14:39:15.306Z,7.03
2023-01-10T14:41:43.253Z,7.03
2023-01-10T14:44:14.004Z,7.03
2023-01-10T14:46:44.644Z,6.97
2023-01-10T14:49:23.579Z,6.90
2023-01-10T14:51:50.068Z,6.82
2023-01-10T14:54:17.391Z,6.80
2023-01-10T14:56:44.467Z,6.74
2023-01-10T14:59:17.971Z,6.84
2023-01-10T15:01:48.143Z,6.76
2023-01-10T15:04:15.620Z,6.73
2023-01-10T15:06:53.463Z,6.75
2023-01-10T15:09:19.799Z,6.71
2023-01-10T15:11:47.122Z,6.63
2023-01-10T15:14:14.968Z,6.62
2023-01-10T15:16:41.616Z,6.60
2023-01-10T15:19:10.947Z,6.51
2023-01-10T15:21:41.137Z,6.50
2023-01-10T15:27:02.713Z,6.51
2023-01-10T15:29:29.056Z,6.52
2023-01-10T15:32:03.115Z,6.57
2023-01-10T15:34:30.429Z,6.55
2023-01-10T15:36:58.706Z,6.52
2023-01-10T15:39:26.983Z,6.45
2023-01-10T15:41:55.758Z,6.47
2023-01-10T15:44:32.613Z,6.39
2023-01-10T15:46:59.049Z,6.37
2023-01-10T15:49:25.876Z,6.43
2023-01-10T15:51:52.491Z,6.37
2023-01-10T15:54:29.701Z,6.35
2023-01-10T15:57:00.535Z,6.32
2023-01-10T15:59:29.623Z,6.33
2023-01-10T16:01:56.857Z,6.34
2023-01-10T16:04:23.323Z,6.42
2023-01-10T16:06:53.176Z,6.37
2023-01-10T16:09:20.547Z,6.35
2023-01-10T16:11:48.380Z,6.33
2023-01-10T16:14:14.796Z,6.35
2023-01-10T16:16:42.454Z,6.34
2023-01-10T16:19:08.777Z,6.35
2023-01-10T16:21:38.088Z,6.29
2023-01-10T16:24:05.065Z,6.30
2023-01-10T16:26:31.739Z,6.31
2023-01-10T16:28:58.091Z,6.30
2023-01-10T16:31:24.461Z,6.31
2023-01-10T16:33:52.121Z,6.25
2023-01-10T16:36:19.508Z,6.34
2023-01-10T16:38:45.846Z,6.28
2023-01-10T16:41:13.301Z,6.27
2023-01-10T16:43:39.581Z,6.34
2023-01-10T16:46:05.946Z,6.30
2023-01-10T16:48:32.336Z,6.31
2023-01-10T16:51:13.877Z,6.26
2023-01-10T16:53:40.199Z,6.28
2023-01-10T16:56:06.750Z,6.32
2023-01-10T16:58:33.107Z,6.32
2023-01-10T17:00:59.549Z,6.30
2023-01-10T17:03:26.192Z,6.27
2023-01-10T17:05:52.571Z,6.33
2023-01-10T17:08:21.536Z,6.27
2023-01-10T17:10:49.203Z,6.30
2023-01-10T17:13:17.362Z,6.29
2023-01-10T17:15:43.687Z,6.30
2023-01-10T17:18:10.904Z,6.28
2023-01-10T17:20:37.225Z,6.31
2023-01-10T17:23:03.529Z,6.28
2023-01-10T17:25:31.160Z,6.29
2023-01-10T17:27:57.583Z,6.28
2023-01-10T17:30:23.915Z,6.27
2023-01-10T17:32:50.254Z,6.30
2023-01-10T17:35:16.716Z,6.30
2023-01-10T17:37:43.052Z,6.30
2023-01-10T17:40:10.102Z,6.31
2023-01-10T17:42:37.788Z,6.33
2023-01-10T17:45:04.272Z,6.34
2023-01-10T17:47:30.563Z,6.34
2023-01-10T17:49:56.906Z,6.33
2023-01-10T17:52:23.190Z,6.40
2023-01-10T17:54:49.519Z,6.44
2023-01-10T17:57:15.831Z,6.49
2023-01-10T17:59:43.460Z,6.53
2023-01-10T18:02:14.579Z,6.47
2023-01-10T18:04:41.016Z,6.50
2023-01-10T18:07:07.350Z,6.60
2023-01-10T18:09:33.678Z,6.62
2023-01-10T18:11:59.959Z,6.64
2023-01-10T18:14:26.300Z,6.63
2023-01-10T18:16:54.058Z,6.64
2023-01-10T18:19:20.404Z,6.66
2023-01-10T18:21:47.463Z,6.73
2023-01-10T18:24:14.364Z,6.69
2023-01-10T18:26:40.732Z,6.80
2023-01-10T18:29:07.055Z,6.72
2023-01-10T18:31:33.366Z,6.80
2023-01-10T18:34:01.014Z,6.85
2023-01-10T18:36:27.322Z,6.86
2023-01-10T18:38:53.635Z,6.97
2023-01-10T18:41:20.407Z,6.96
2023-01-10T18:43:46.990Z,6.97
2023-01-10T18:46:14.294Z,7.02
2023-01-10T18:48:40.675Z,7.02
2023-01-10T18:51:08.363Z,7.07
2023-01-10T18:53:34.686Z,7.16
2023-01-10T18:56:02.119Z,7.18
2023-01-10T18:58:30.184Z,7.13
2023-01-10T19:00:56.541Z,7.07
2023-01-10T19:03:23.275Z,7.13
2023-01-10T19:05:49.654Z,7.08
2023-01-10T19:08:17.361Z,7.11
2023-01-10T19:11:07.138Z,7.12
2023-01-10T19:13:30.444Z,7.09
2023-01-10T19:16:07.084Z,7.12
2023-01-10T19:18:33.432Z,7.14
2023-01-10T19:20:59.726Z,7.14
2023-01-10T19:23:27.497Z,7.20
2023-01-10T19:25:54.752Z,7.17
2023-01-10T19:28:21.096Z,7.18
2023-01-10T19:31:03.154Z,7.32
2023-01-10T19:33:31.001Z,7.27
2023-01-10T19:35:57.312Z,7.33
2023-01-10T19:38:23.653Z,7.34
2023-01-10T19:40:52.243Z,7.40
2023-01-10T19:43:18.854Z,7.40
2023-01-10T19:45:45.194Z,7.39
2023-01-10T19:48:11.512Z,7.37
2023-01-10T19:50:37.789Z,7.45
2023-01-10T19:53:04.130Z,7.49
2023-01-10T19:55:30.454Z,7.50
2023-01-10T19:57:58.886Z,7.46
2023-01-10T20:00:25.386Z,7.51
2023-01-10T20:02:51.745Z,7.52
2023-01-10T20:05:18.099Z,7.51
2023-01-10T20:07:48.407Z,7.56
2023-01-10T20:10:14.854Z,7.57
2023-01-10T20:12:41.167Z,7.60
2023-01-10T20:15:09.595Z,7.61
2023-01-10T20:17:35.916Z,7.63
2023-01-10T20:20:02.505Z,7.67
2023-01-10T20:22:28.832Z,7.76
2023-01-10T20:24:55.113Z,7.76
2023-01-10T20:27:21.430Z,7.80
2023-01-10T20:29:47.817Z,7.74
2023-01-10T20:32:15.520Z,7.78
2023-01-10T20:34:42.107Z,7.82
2023-01-10T20:37:08.398Z,7.79
2023-01-10T20:39:34.701Z,7.84
2023-01-10T20:42:01.030Z,7.87
2023-01-10T20:44:27.341Z,7.89
2023-01-10T20:46:53.697Z,7.94
2023-01-10T20:49:21.628Z,8.01
2023-01-10T20:51:48.382Z,8.03
2023-01-10T20:54:14.809Z,8.08
2023-01-10T20:56:41.178Z,8.08
2023-01-10T20:59:07.705Z,8.04
2023-01-10T21:01:36.204Z,8.18
2023-01-10T21:04:03.486Z,8.22
2023-01-10T21:06:31.334Z,8.18
2023-01-10T21:08:57.717Z,8.21
2023-01-10T21:11:24.258Z,8.22
2023-01-10T21:13:50.583Z,8.25
2023-01-10T21:16:17.898Z,8.21
2023-01-10T21:18:44.242Z,8.19
2023-01-10T21:21:11.372Z,8.21
2023-01-10T21:23:39.014Z,8.18
2023-01-10T21:26:06.197Z,8.22
2023-01-10T21:28:33.135Z,8.23
2023-01-10T21:30:59.426Z,8.25
2023-01-10T21:33:25.758Z,8.18
2023-01-10T21:35:52.538Z,8.19
2023-01-10T21:38:18.849Z,8.21
2023-01-10T21:40:46.502Z,8.21
2023-01-10T21:43:12.788Z,8.27
2023-01-10T21:45:39.068Z,8.26
2023-01-10T21:48:05.495Z,8.26
2023-01-10T21:50:31.828Z,8.26
2023-01-10T21:52:58.122Z,8.29
2023-01-10T21:55:24.425Z,8.34
2023-01-10T21:57:52.094Z,8.34
2023-01-10T22:00:18.918Z,8.41
2023-01-10T22:02:45.237Z,8.44
2023-01-10T22:05:11.545Z,8.40
2023-01-10T22:07:38.117Z,8.49
2023-01-10T22:10:05.173Z,8.52
2023-01-10T22:12:31.462Z,8.59
2023-01-10T22:14:59.420Z,8.67
2023-01-10T22:17:25.700Z,8.61
2023-01-10T22:19:52.041Z,8.72
2023-01-10T22:22:18.377Z,8.63
2023-01-10T22:24:44.694Z,8.69
2023-01-10T22:27:11.010Z,8.66
2023-01-10T22:29:37.316Z,8.70
2023-01-10T22:32:05.097Z,8.74
2023-01-10T22:34:31.418Z,8.80
2023-01-10T22:36:57.787Z,8.86
2023-01-10T22:39:24.173Z,8.90
2023-01-10T22:41:50.474Z,8.94
2023-01-10T22:44:17.492Z,8.94
2023-01-10T22:46:43.890Z,8.96
2023-01-10T22:49:11.581Z,8.97
2023-01-10T22:51:37.893Z,9.00
2023-01-10T22:54:04.377Z,9.03
2023-01-10T22:56:30.711Z,9.01
2023-01-10T22:58:57.008Z,9.04
2023-01-10T23:01:24.050Z,9.05
2023-01-10T23:03:50.402Z,9.13
2023-01-10T23:06:18.197Z,9.17
2023-01-10T23:08:44.600Z,9.16
2023-01-10T23:11:12.617Z,9.19
2023-01-10T23:13:38.861Z,9.25
2023-01-10T23:16:06.174Z,9.30
2023-01-10T23:18:33.031Z,9.26
2023-01-10T23:20:59.516Z,9.34
2023-01-10T23:23:27.380Z,9.37
2023-01-10T23:25:53.968Z,9.33
2023-01-10T23:28:20.228Z,9.37
2023-01-10T23:30:46.478Z,9.36
2023-01-10T23:33:12.752Z,9.41
2023-01-10T23:35:38.998Z,9.45
2023-01-10T23:38:05.246Z,9.46
2023-01-10T23:40:32.855Z,9.48
2023-01-10T23:42:59.103Z,9.53
2023-01-10T23:45:25.355Z,9.58
2023-01-10T23:47:51.631Z,9.66
2023-01-10T23:50:17.943Z,9.62
2023-01-10T23:52:44.231Z,9.64
2023-01-10T23:55:10.527Z,9.63
2023-01-10T23:57:38.169Z,9.75
